sensor_id;sensor_type;location;lat;lon;timestamp;P1;durP1;ratioP1;P2;durP2;ratioP2
3587;SDS011;1808;53.596;9.972;2022-10-16T00:01:59;12.90;;;7.97;;
3587;SDS011;1808;53.596;9.972;2022-10-16T00:04:26;16.83;;;8.82;;
3587;SDS011;1808;53.596;9.972;2022-10-16T00:06:52;12.25;;;8.00;;
3587;SDS011;1808;53.596;9.972;2022-10-16T00:09:19;14.30;;;8.73;;
3587;SDS011;1808;53.596;9.972;2022-10-16T00:11:45;15.07;;;8.40;;
3587;SDS011;1808;53.596;9.972;2022-10-16T00:14:13;11.48;;;7.32;;
3587;SDS011;1808;53.596;9.972;2022-10-16T00:16:40;9.75;;;6.80;;
3587;SDS011;1808;53.596;9.972;2022-10-16T00:19:08;12.65;;;6.88;;
3587;SDS011;1808;53.596;9.972;2022-10-16T00:21:35;9.02;;;6.68;;
3587;SDS011;1808;53.596;9.972;2022-10-16T00:24:02;12.75;;;5.97;;
3587;SDS011;1808;53.596;9.972;2022-10-16T00:26:30;8.88;;;5.30;;
3587;SDS011;1808;53.596;9.972;2022-10-16T00:28:57;9.50;;;5.82;;
3587;SDS011;1808;53.596;9.972;2022-10-16T00:31:25;10.82;;;5.50;;
3587;SDS011;1808;53.596;9.972;2022-10-16T00:33:52;8.93;;;4.97;;
3587;SDS011;1808;53.596;9.972;2022-10-16T00:36:19;8.15;;;5.07;;
3587;SDS011;1808;53.596;9.972;2022-10-16T00:38:49;11.45;;;4.70;;
3587;SDS011;1808;53.596;9.972;2022-10-16T00:41:17;7.55;;;4.00;;
3587;SDS011;1808;53.596;9.972;2022-10-16T00:43:45;9.48;;;3.78;;
3587;SDS011;1808;53.596;9.972;2022-10-16T00:46:14;10.07;;;4.72;;
3587;SDS011;1808;53.596;9.972;2022-10-16T00:48:44;8.20;;;4.00;;
3587;SDS011;1808;53.596;9.972;2022-10-16T00:51:15;6.50;;;3.70;;
3587;SDS011;1808;53.596;9.972;2022-10-16T00:53:44;7.93;;;3.60;;
3587;SDS011;1808;53.596;9.972;2022-10-16T00:56:10;7.10;;;3.28;;
3587;SDS011;1808;53.596;9.972;2022-10-16T00:58:37;7.53;;;3.22;;
3587;SDS011;1808;53.596;9.972;2022-10-16T01:01:03;6.93;;;3.50;;
3587;SDS011;1808;53.596;9.972;2022-10-16T01:03:30;5.95;;;3.00;;
3587;SDS011;1808;53.596;9.972;2022-10-16T01:06:12;6.70;;;2.95;;
3587;SDS011;1808;53.596;9.972;2022-10-16T01:08:48;6.35;;;3.38;;
3587;SDS011;1808;53.596;9.972;2022-10-16T01:11:20;10.32;;;3.15;;
3587;SDS011;1808;53.596;9.972;2022-10-16T01:13:50;8.38;;;3.10;;
3587;SDS011;1808;53.596;9.972;2022-10-16T01:16:21;4.93;;;2.67;;
3587;SDS011;1808;53.596;9.972;2022-10-16T01:18:54;8.40;;;2.58;;
3587;SDS011;1808;53.596;9.972;2022-10-16T01:21:26;4.70;;;2.20;;
3587;SDS011;1808;53.596;9.972;2022-10-16T01:23:57;5.32;;;3.00;;
3587;SDS011;1808;53.596;9.972;2022-10-16T01:26:31;6.40;;;2.53;;
3587;SDS011;1808;53.596;9.972;2022-10-16T01:29:05;5.25;;;2.40;;
3587;SDS011;1808;53.596;9.972;2022-10-16T01:31:35;4.93;;;2.47;;
3587;SDS011;1808;53.596;9.972;2022-10-16T01:34:03;7.32;;;2.85;;
3587;SDS011;1808;53.596;9.972;2022-10-16T01:36:35;4.97;;;2.20;;
3587;SDS011;1808;53.596;9.972;2022-10-16T01:39:03;5.18;;;2.20;;
3587;SDS011;1808;53.596;9.972;2022-10-16T01:41:31;6.65;;;2.35;;
3587;SDS011;1808;53.596;9.972;2022-10-16T01:44:01;6.93;;;2.22;;
3587;SDS011;1808;53.596;9.972;2022-10-16T01:46:30;7.65;;;2.88;;
3587;SDS011;1808;53.596;9.972;2022-10-16T01:48:58;5.20;;;2.17;;
3587;SDS011;1808;53.596;9.972;2022-10-16T01:51:25;4.78;;;2.10;;
3587;SDS011;1808;53.596;9.972;2022-10-16T01:53:53;5.72;;;2.60;;
3587;SDS011;1808;53.596;9.972;2022-10-16T01:56:21;5.38;;;2.30;;
3587;SDS011;1808;53.596;9.972;2022-10-16T01:58:49;3.70;;;2.22;;
3587;SDS011;1808;53.596;9.972;2022-10-16T02:01:18;7.35;;;2.30;;
3587;SDS011;1808;53.596;9.972;2022-10-16T02:03:49;5.55;;;2.35;;
3587;SDS011;1808;53.596;9.972;2022-10-16T02:06:17;4.85;;;2.17;;
3587;SDS011;1808;53.596;9.972;2022-10-16T02:08:44;6.85;;;2.92;;
3587;SDS011;1808;53.596;9.972;2022-10-16T02:11:11;5.30;;;2.53;;
3587;SDS011;1808;53.596;9.972;2022-10-16T02:13:38;7.05;;;2.60;;
3587;SDS011;1808;53.596;9.972;2022-10-16T02:16:09;6.22;;;2.90;;
3587;SDS011;1808;53.596;9.972;2022-10-16T02:18:37;5.90;;;2.60;;
3587;SDS011;1808;53.596;9.972;2022-10-16T02:21:06;5.63;;;2.30;;
3587;SDS011;1808;53.596;9.972;2022-10-16T02:23:42;4.40;;;2.35;;
3587;SDS011;1808;53.596;9.972;2022-10-16T02:28:40;5.85;;;2.33;;
3587;SDS011;1808;53.596;9.972;2022-10-16T02:31:09;3.72;;;2.25;;
3587;SDS011;1808;53.596;9.972;2022-10-16T02:33:38;4.18;;;2.20;;
3587;SDS011;1808;53.596;9.972;2022-10-16T02:36:06;4.95;;;2.47;;
3587;SDS011;1808;53.596;9.972;2022-10-16T02:38:33;9.07;;;2.70;;
3587;SDS011;1808;53.596;9.972;2022-10-16T02:41:00;5.25;;;2.05;;
3587;SDS011;1808;53.596;9.972;2022-10-16T02:43:26;6.30;;;2.00;;
3587;SDS011;1808;53.596;9.972;2022-10-16T02:45:52;7.97;;;2.60;;
3587;SDS011;1808;53.596;9.972;2022-10-16T02:48:19;7.53;;;2.30;;
3587;SDS011;1808;53.596;9.972;2022-10-16T02:50:45;6.10;;;2.05;;
3587;SDS011;1808;53.596;9.972;2022-10-16T02:53:13;4.03;;;1.75;;
3587;SDS011;1808;53.596;9.972;2022-10-16T02:55:39;8.25;;;2.20;;
3587;SDS011;1808;53.596;9.972;2022-10-16T02:58:05;5.93;;;1.70;;
3587;SDS011;1808;53.596;9.972;2022-10-16T03:00:32;5.63;;;2.00;;
3587;SDS011;1808;53.596;9.972;2022-10-16T03:02:58;4.10;;;1.67;;
3587;SDS011;1808;53.596;9.972;2022-10-16T03:05:24;4.82;;;2.33;;
3587;SDS011;1808;53.596;9.972;2022-10-16T03:07:50;7.03;;;2.40;;
3587;SDS011;1808;53.596;9.972;2022-10-16T03:10:18;8.43;;;2.30;;
3587;SDS011;1808;53.596;9.972;2022-10-16T03:12:45;5.53;;;2.15;;
3587;SDS011;1808;53.596;9.972;2022-10-16T03:15:11;5.82;;;1.80;;
3587;SDS011;1808;53.596;9.972;2022-10-16T03:17:38;5.43;;;2.22;;
3587;SDS011;1808;53.596;9.972;2022-10-16T03:20:04;4.43;;;2.10;;
3587;SDS011;1808;53.596;9.972;2022-10-16T03:22:31;8.75;;;2.90;;
3587;SDS011;1808;53.596;9.972;2022-10-16T03:24:58;5.07;;;2.10;;
3587;SDS011;1808;53.596;9.972;2022-10-16T03:27:25;6.80;;;2.95;;
3587;SDS011;1808;53.596;9.972;2022-10-16T03:29:52;8.10;;;2.58;;
3587;SDS011;1808;53.596;9.972;2022-10-16T03:32:18;6.95;;;2.42;;
3587;SDS011;1808;53.596;9.972;2022-10-16T03:34:45;5.18;;;2.47;;
3587;SDS011;1808;53.596;9.972;2022-10-16T03:37:11;11.30;;;3.25;;
3587;SDS011;1808;53.596;9.972;2022-10-16T03:39:38;6.10;;;2.60;;
3587;SDS011;1808;53.596;9.972;2022-10-16T03:42:04;5.20;;;2.58;;
3587;SDS011;1808;53.596;9.972;2022-10-16T03:44:32;6.53;;;2.28;;
3587;SDS011;1808;53.596;9.972;2022-10-16T03:46:58;4.68;;;2.42;;
3587;SDS011;1808;53.596;9.972;2022-10-16T03:49:24;5.90;;;2.53;;
3587;SDS011;1808;53.596;9.972;2022-10-16T03:51:50;6.70;;;2.33;;
3587;SDS011;1808;53.596;9.972;2022-10-16T03:54:17;8.20;;;2.33;;
3587;SDS011;1808;53.596;9.972;2022-10-16T03:56:43;7.82;;;2.78;;
3587;SDS011;1808;53.596;9.972;2022-10-16T03:59:09;5.03;;;2.42;;
3587;SDS011;1808;53.596;9.972;2022-10-16T04:01:37;7.55;;;2.78;;
3587;SDS011;1808;53.596;9.972;2022-10-16T04:04:03;4.88;;;2.20;;
3587;SDS011;1808;53.596;9.972;2022-10-16T04:06:30;6.40;;;2.20;;
3587;SDS011;1808;53.596;9.972;2022-10-16T04:08:56;5.28;;;2.03;;
3587;SDS011;1808;53.596;9.972;2022-10-16T04:11:22;5.97;;;2.15;;
3587;SDS011;1808;53.596;9.972;2022-10-16T04:13:49;5.47;;;1.88;;
3587;SDS011;1808;53.596;9.972;2022-10-16T04:16:15;5.80;;;2.13;;
3587;SDS011;1808;53.596;9.972;2022-10-16T04:18:43;7.60;;;1.85;;
3587;SDS011;1808;53.596;9.972;2022-10-16T04:21:09;7.85;;;1.88;;
3587;SDS011;1808;53.596;9.972;2022-10-16T04:23:36;7.93;;;1.90;;
3587;SDS011;1808;53.596;9.972;2022-10-16T04:26:02;5.82;;;2.03;;
3587;SDS011;1808;53.596;9.972;2022-10-16T04:28:29;5.78;;;2.25;;
3587;SDS011;1808;53.596;9.972;2022-10-16T04:30:55;6.55;;;2.08;;
3587;SDS011;1808;53.596;9.972;2022-10-16T04:33:21;5.15;;;2.00;;
3587;SDS011;1808;53.596;9.972;2022-10-16T04:35:55;7.13;;;1.92;;
3587;SDS011;1808;53.596;9.972;2022-10-16T04:38:22;3.60;;;2.17;;
3587;SDS011;1808;53.596;9.972;2022-10-16T04:40:48;6.03;;;2.60;;
3587;SDS011;1808;53.596;9.972;2022-10-16T04:43:14;6.30;;;2.47;;
3587;SDS011;1808;53.596;9.972;2022-10-16T04:45:41;5.57;;;2.17;;
3587;SDS011;1808;53.596;9.972;2022-10-16T04:48:07;7.10;;;3.00;;
3587;SDS011;1808;53.596;9.972;2022-10-16T04:50:33;7.07;;;2.55;;
3587;SDS011;1808;53.596;9.972;2022-10-16T04:53:01;5.90;;;2.40;;
3587;SDS011;1808;53.596;9.972;2022-10-16T04:55:27;6.80;;;2.55;;
3587;SDS011;1808;53.596;9.972;2022-10-16T04:57:53;6.72;;;3.05;;
3587;SDS011;1808;53.596;9.972;2022-10-16T05:00:20;6.90;;;2.30;;
3587;SDS011;1808;53.596;9.972;2022-10-16T05:02:47;7.10;;;2.90;;
3587;SDS011;1808;53.596;9.972;2022-10-16T05:05:13;6.65;;;2.80;;
3587;SDS011;1808;53.596;9.972;2022-10-16T05:07:40;7.18;;;3.42;;
3587;SDS011;1808;53.596;9.972;2022-10-16T05:10:08;7.10;;;3.15;;
3587;SDS011;1808;53.596;9.972;2022-10-16T05:12:34;6.03;;;3.40;;
3587;SDS011;1808;53.596;9.972;2022-10-16T05:15:00;5.50;;;2.88;;
3587;SDS011;1808;53.596;9.972;2022-10-16T05:17:27;8.82;;;3.20;;
3587;SDS011;1808;53.596;9.972;2022-10-16T05:19:53;8.38;;;3.47;;
3587;SDS011;1808;53.596;9.972;2022-10-16T05:22:20;6.90;;;3.50;;
3587;SDS011;1808;53.596;9.972;2022-10-16T05:24:46;11.07;;;3.60;;
3587;SDS011;1808;53.596;9.972;2022-10-16T05:27:13;11.23;;;3.75;;
3587;SDS011;1808;53.596;9.972;2022-10-16T05:29:44;10.82;;;3.50;;
3587;SDS011;1808;53.596;9.972;2022-10-16T05:32:10;8.15;;;3.50;;
3587;SDS011;1808;53.596;9.972;2022-10-16T05:34:36;6.50;;;3.78;;
3587;SDS011;1808;53.596;9.972;2022-10-16T05:37:03;14.35;;;4.85;;
3587;SDS011;1808;53.596;9.972;2022-10-16T05:39:29;10.25;;;4.15;;
3587;SDS011;1808;53.596;9.972;2022-10-16T05:41:55;9.63;;;4.50;;
3587;SDS011;1808;53.596;9.972;2022-10-16T05:44:23;9.13;;;3.60;;
3587;SDS011;1808;53.596;9.972;2022-10-16T05:46:49;7.70;;;4.03;;
3587;SDS011;1808;53.596;9.972;2022-10-16T05:49:16;12.32;;;3.67;;
3587;SDS011;1808;53.596;9.972;2022-10-16T05:51:42;8.00;;;3.75;;
3587;SDS011;1808;53.596;9.972;2022-10-16T05:54:09;5.32;;;3.33;;
3587;SDS011;1808;53.596;9.972;2022-10-16T05:56:35;7.75;;;3.20;;
3587;SDS011;1808;53.596;9.972;2022-10-16T05:59:02;7.10;;;3.33;;
3587;SDS011;1808;53.596;9.972;2022-10-16T06:01:30;6.70;;;3.17;;
3587;SDS011;1808;53.596;9.972;2022-10-16T06:03:57;7.50;;;2.85;;
3587;SDS011;1808;53.596;9.972;2022-10-16T06:06:24;7.22;;;3.03;;
3587;SDS011;1808;53.596;9.972;2022-10-16T06:08:51;8.45;;;3.17;;
3587;SDS011;1808;53.596;9.972;2022-10-16T06:11:19;5.18;;;2.90;;
3587;SDS011;1808;53.596;9.972;2022-10-16T06:13:48;10.07;;;2.70;;
3587;SDS011;1808;53.596;9.972;2022-10-16T06:16:15;6.45;;;2.78;;
3587;SDS011;1808;53.596;9.972;2022-10-16T06:18:43;7.20;;;3.03;;
3587;SDS011;1808;53.596;9.972;2022-10-16T06:21:10;6.28;;;2.63;;
3587;SDS011;1808;53.596;9.972;2022-10-16T06:23:37;6.68;;;3.08;;
3587;SDS011;1808;53.596;9.972;2022-10-16T06:26:04;9.15;;;2.95;;
3587;SDS011;1808;53.596;9.972;2022-10-16T06:28:31;4.85;;;2.63;;
3587;SDS011;1808;53.596;9.972;2022-10-16T06:30:58;5.18;;;2.72;;
3587;SDS011;1808;53.596;9.972;2022-10-16T06:33:25;10.73;;;3.45;;
3587;SDS011;1808;53.596;9.972;2022-10-16T06:35:52;4.70;;;2.50;;
3587;SDS011;1808;53.596;9.972;2022-10-16T06:38:19;7.28;;;2.63;;
3587;SDS011;1808;53.596;9.972;2022-10-16T06:40:45;6.90;;;2.45;;
3587;SDS011;1808;53.596;9.972;2022-10-16T06:43:13;7.68;;;2.58;;
3587;SDS011;1808;53.596;9.972;2022-10-16T06:45:39;5.75;;;2.35;;
3587;SDS011;1808;53.596;9.972;2022-10-16T06:48:06;9.18;;;2.72;;
3587;SDS011;1808;53.596;9.972;2022-10-16T06:50:32;7.05;;;2.70;;
3587;SDS011;1808;53.596;9.972;2022-10-16T06:53:00;7.97;;;3.25;;
3587;SDS011;1808;53.596;9.972;2022-10-16T06:55:26;6.50;;;3.03;;
3587;SDS011;1808;53.596;9.972;2022-10-16T06:57:53;5.43;;;2.92;;
3587;SDS011;1808;53.596;9.972;2022-10-16T07:00:19;5.90;;;3.08;;
3587;SDS011;1808;53.596;9.972;2022-10-16T07:02:45;5.95;;;2.97;;
3587;SDS011;1808;53.596;9.972;2022-10-16T07:05:11;6.07;;;3.30;;
3587;SDS011;1808;53.596;9.972;2022-10-16T07:07:38;7.72;;;3.30;;
3587;SDS011;1808;53.596;9.972;2022-10-16T07:10:06;8.13;;;4.28;;
3587;SDS011;1808;53.596;9.972;2022-10-16T07:12:33;7.35;;;3.08;;
3587;SDS011;1808;53.596;9.972;2022-10-16T07:14:59;7.13;;;3.42;;
3587;SDS011;1808;53.596;9.972;2022-10-16T07:17:25;6.07;;;3.45;;
3587;SDS011;1808;53.596;9.972;2022-10-16T07:19:51;9.95;;;4.20;;
3587;SDS011;1808;53.596;9.972;2022-10-16T07:22:18;7.93;;;4.57;;
3587;SDS011;1808;53.596;9.972;2022-10-16T07:24:44;6.43;;;3.33;;
3587;SDS011;1808;53.596;9.972;2022-10-16T07:27:12;6.18;;;3.35;;
3587;SDS011;1808;53.596;9.972;2022-10-16T07:29:40;7.50;;;3.55;;
3587;SDS011;1808;53.596;9.972;2022-10-16T07:32:06;6.85;;;3.22;;
3587;SDS011;1808;53.596;9.972;2022-10-16T07:34:33;6.13;;;3.28;;
3587;SDS011;1808;53.596;9.972;2022-10-16T07:36:59;6.22;;;3.47;;
3587;SDS011;1808;53.596;9.972;2022-10-16T07:39:26;8.30;;;4.25;;
3587;SDS011;1808;53.596;9.972;2022-10-16T07:41:52;9.38;;;3.58;;
3587;SDS011;1808;53.596;9.972;2022-10-16T07:44:20;9.45;;;4.70;;
3587;SDS011;1808;53.596;9.972;2022-10-16T07:46:46;8.93;;;4.15;;
3587;SDS011;1808;53.596;9.972;2022-10-16T07:49:12;8.13;;;3.80;;
3587;SDS011;1808;53.596;9.972;2022-10-16T07:51:39;8.05;;;3.20;;
3587;SDS011;1808;53.596;9.972;2022-10-16T07:54:05;6.50;;;3.58;;
3587;SDS011;1808;53.596;9.972;2022-10-16T07:56:32;9.77;;;3.20;;
3587;SDS011;1808;53.596;9.972;2022-10-16T07:58:58;7.13;;;3.38;;
3587;SDS011;1808;53.596;9.972;2022-10-16T08:01:26;6.88;;;3.70;;
3587;SDS011;1808;53.596;9.972;2022-10-16T08:03:52;6.72;;;3.72;;
3587;SDS011;1808;53.596;9.972;2022-10-16T08:06:19;9.73;;;4.38;;
3587;SDS011;1808;53.596;9.972;2022-10-16T08:08:47;7.07;;;3.53;;
3587;SDS011;1808;53.596;9.972;2022-10-16T08:11:13;5.88;;;3.00;;
3587;SDS011;1808;53.596;9.972;2022-10-16T08:13:40;6.20;;;3.25;;
3587;SDS011;1808;53.596;9.972;2022-10-16T08:16:06;7.22;;;3.47;;
3587;SDS011;1808;53.596;9.972;2022-10-16T08:18:36;5.15;;;3.35;;
3587;SDS011;1808;53.596;9.972;2022-10-16T08:21:03;28.35;;;5.30;;
3587;SDS011;1808;53.596;9.972;2022-10-16T08:23:30;8.63;;;3.42;;
3587;SDS011;1808;53.596;9.972;2022-10-16T08:26:01;8.23;;;3.42;;
3587;SDS011;1808;53.596;9.972;2022-10-16T08:28:29;8.38;;;3.72;;
3587;SDS011;1808;53.596;9.972;2022-10-16T08:30:55;7.63;;;3.17;;
3587;SDS011;1808;53.596;9.972;2022-10-16T08:33:21;8.32;;;3.40;;
3587;SDS011;1808;53.596;9.972;2022-10-16T08:35:52;7.55;;;3.47;;
3587;SDS011;1808;53.596;9.972;2022-10-16T08:38:19;7.15;;;2.95;;
3587;SDS011;1808;53.596;9.972;2022-10-16T08:40:46;6.22;;;3.33;;
3587;SDS011;1808;53.596;9.972;2022-10-16T08:43:31;7.90;;;3.65;;
3587;SDS011;1808;53.596;9.972;2022-10-16T08:48:57;9.13;;;3.17;;
3587;SDS011;1808;53.596;9.972;2022-10-16T08:51:26;6.57;;;3.22;;
3587;SDS011;1808;53.596;9.972;2022-10-16T08:53:56;8.50;;;3.30;;
3587;SDS011;1808;53.596;9.972;2022-10-16T08:56:23;4.90;;;3.13;;
3587;SDS011;1808;53.596;9.972;2022-10-16T08:58:51;5.53;;;3.13;;
3587;SDS011;1808;53.596;9.972;2022-10-16T09:01:18;5.85;;;3.22;;
3587;SDS011;1808;53.596;9.972;2022-10-16T09:06:53;7.40;;;2.97;;
3587;SDS011;1808;53.596;9.972;2022-10-16T09:09:38;7.63;;;2.92;;
3587;SDS011;1808;53.596;9.972;2022-10-16T09:12:15;5.28;;;2.50;;
3587;SDS011;1808;53.596;9.972;2022-10-16T09:14:49;8.80;;;2.63;;
3587;SDS011;1808;53.596;9.972;2022-10-16T09:17:25;6.28;;;2.70;;
3587;SDS011;1808;53.596;9.972;2022-10-16T09:20:01;7.63;;;2.22;;
3587;SDS011;1808;53.596;9.972;2022-10-16T09:22:39;7.13;;;2.28;;
3587;SDS011;1808;53.596;9.972;2022-10-16T09:25:10;5.05;;;1.95;;
3587;SDS011;1808;53.596;9.972;2022-10-16T09:27:38;5.33;;;2.60;;
3587;SDS011;1808;53.596;9.972;2022-10-16T09:30:10;3.30;;;2.03;;
3587;SDS011;1808;53.596;9.972;2022-10-16T09:32:38;5.72;;;1.98;;
3587;SDS011;1808;53.596;9.972;2022-10-16T09:35:09;4.13;;;1.83;;
3587;SDS011;1808;53.596;9.972;2022-10-16T09:37:37;5.63;;;1.98;;
3587;SDS011;1808;53.596;9.972;2022-10-16T09:40:06;7.10;;;3.13;;
3587;SDS011;1808;53.596;9.972;2022-10-16T09:42:34;4.47;;;1.73;;
3587;SDS011;1808;53.596;9.972;2022-10-16T09:45:02;4.18;;;1.83;;
3587;SDS011;1808;53.596;9.972;2022-10-16T09:47:30;5.22;;;1.88;;
3587;SDS011;1808;53.596;9.972;2022-10-16T09:49:58;4.00;;;2.03;;
3587;SDS011;1808;53.596;9.972;2022-10-16T09:52:27;3.97;;;1.40;;
3587;SDS011;1808;53.596;9.972;2022-10-16T09:54:55;8.45;;;1.83;;
3587;SDS011;1808;53.596;9.972;2022-10-16T09:57:23;4.30;;;1.60;;
3587;SDS011;1808;53.596;9.972;2022-10-16T09:59:51;5.82;;;1.73;;
3587;SDS011;1808;53.596;9.972;2022-10-16T10:02:19;3.25;;;1.55;;
3587;SDS011;1808;53.596;9.972;2022-10-16T10:04:50;5.25;;;1.83;;
3587;SDS011;1808;53.596;9.972;2022-10-16T10:07:20;5.88;;;2.05;;
3587;SDS011;1808;53.596;9.972;2022-10-16T10:09:50;4.82;;;2.13;;
3587;SDS011;1808;53.596;9.972;2022-10-16T10:12:17;5.70;;;1.73;;
3587;SDS011;1808;53.596;9.972;2022-10-16T10:14:47;5.90;;;1.92;;
3587;SDS011;1808;53.596;9.972;2022-10-16T10:17:16;8.77;;;2.00;;
3587;SDS011;1808;53.596;9.972;2022-10-16T10:19:48;5.72;;;1.60;;
3587;SDS011;1808;53.596;9.972;2022-10-16T10:22:21;8.50;;;1.58;;
3587;SDS011;1808;53.596;9.972;2022-10-16T10:27:45;4.03;;;1.77;;
3587;SDS011;1808;53.596;9.972;2022-10-16T10:30:23;5.10;;;1.75;;
3587;SDS011;1808;53.596;9.972;2022-10-16T10:32:54;4.85;;;2.50;;
3587;SDS011;1808;53.596;9.972;2022-10-16T10:35:30;4.72;;;1.83;;
3587;SDS011;1808;53.596;9.972;2022-10-16T10:38:04;5.65;;;1.63;;
3587;SDS011;1808;53.596;9.972;2022-10-16T10:40:39;5.47;;;1.50;;
3587;SDS011;1808;53.596;9.972;2022-10-16T10:43:14;6.07;;;1.90;;
3587;SDS011;1808;53.596;9.972;2022-10-16T10:45:49;7.30;;;1.95;;
3587;SDS011;1808;53.596;9.972;2022-10-16T10:48:20;3.47;;;1.35;;
3587;SDS011;1808;53.596;9.972;2022-10-16T10:50:56;6.35;;;1.52;;
3587;SDS011;1808;53.596;9.972;2022-10-16T10:53:26;5.85;;;1.35;;
3587;SDS011;1808;53.596;9.972;2022-10-16T10:56:00;3.97;;;1.20;;
3587;SDS011;1808;53.596;9.972;2022-10-16T11:01:29;4.20;;;1.10;;
3587;SDS011;1808;53.596;9.972;2022-10-16T11:04:03;3.58;;;1.25;;
3587;SDS011;1808;53.596;9.972;2022-10-16T11:06:39;5.30;;;1.20;;
3587;SDS011;1808;53.596;9.972;2022-10-16T11:09:08;10.68;;;1.63;;
3587;SDS011;1808;53.596;9.972;2022-10-16T11:11:36;4.03;;;1.20;;
3587;SDS011;1808;53.596;9.972;2022-10-16T11:14:10;4.07;;;1.17;;
3587;SDS011;1808;53.596;9.972;2022-10-16T11:16:44;6.85;;;1.15;;
3587;SDS011;1808;53.596;9.972;2022-10-16T11:19:26;4.45;;;1.20;;
3587;SDS011;1808;53.596;9.972;2022-10-16T11:22:01;3.60;;;0.90;;
3587;SDS011;1808;53.596;9.972;2022-10-16T11:24:33;6.43;;;1.17;;
3587;SDS011;1808;53.596;9.972;2022-10-16T11:27:03;3.20;;;1.00;;
3587;SDS011;1808;53.596;9.972;2022-10-16T11:29:33;5.53;;;1.20;;
3587;SDS011;1808;53.596;9.972;2022-10-16T11:32:04;3.85;;;0.90;;
3587;SDS011;1808;53.596;9.972;2022-10-16T11:34:34;6.25;;;1.02;;
3587;SDS011;1808;53.596;9.972;2022-10-16T11:37:05;3.40;;;0.98;;
3587;SDS011;1808;53.596;9.972;2022-10-16T11:39:34;7.05;;;1.20;;
3587;SDS011;1808;53.596;9.972;2022-10-16T11:42:02;4.25;;;1.33;;
3587;SDS011;1808;53.596;9.972;2022-10-16T11:44:38;5.20;;;1.00;;
3587;SDS011;1808;53.596;9.972;2022-10-16T11:47:18;3.20;;;0.80;;
3587;SDS011;1808;53.596;9.972;2022-10-16T11:49:51;3.42;;;0.85;;
3587;SDS011;1808;53.596;9.972;2022-10-16T11:52:36;9.73;;;1.38;;
3587;SDS011;1808;53.596;9.972;2022-10-16T11:55:08;4.93;;;1.20;;
3587;SDS011;1808;53.596;9.972;2022-10-16T11:57:44;3.45;;;0.93;;
3587;SDS011;1808;53.596;9.972;2022-10-16T12:00:17;5.28;;;1.42;;
3587;SDS011;1808;53.596;9.972;2022-10-16T12:02:50;6.03;;;1.02;;
3587;SDS011;1808;53.596;9.972;2022-10-16T12:05:24;5.45;;;1.00;;
3587;SDS011;1808;53.596;9.972;2022-10-16T12:07:59;5.07;;;1.73;;
3587;SDS011;1808;53.596;9.972;2022-10-16T12:10:31;2.42;;;0.90;;
3587;SDS011;1808;53.596;9.972;2022-10-16T12:13:02;4.03;;;1.45;;
3587;SDS011;1808;53.596;9.972;2022-10-16T12:15:30;11.00;;;1.25;;
3587;SDS011;1808;53.596;9.972;2022-10-16T12:17:59;4.97;;;1.23;;
3587;SDS011;1808;53.596;9.972;2022-10-16T12:20:27;6.85;;;1.52;;
3587;SDS011;1808;53.596;9.972;2022-10-16T12:22:57;6.07;;;1.33;;
3587;SDS011;1808;53.596;9.972;2022-10-16T12:25:26;4.63;;;1.15;;
3587;SDS011;1808;53.596;9.972;2022-10-16T12:27:54;5.03;;;1.23;;
3587;SDS011;1808;53.596;9.972;2022-10-16T12:30:23;5.28;;;1.60;;
3587;SDS011;1808;53.596;9.972;2022-10-16T12:32:54;3.03;;;1.00;;
3587;SDS011;1808;53.596;9.972;2022-10-16T12:35:24;6.18;;;1.20;;
3587;SDS011;1808;53.596;9.972;2022-10-16T12:37:51;4.60;;;1.10;;
3587;SDS011;1808;53.596;9.972;2022-10-16T12:40:25;8.07;;;1.30;;
3587;SDS011;1808;53.596;9.972;2022-10-16T12:42:54;4.50;;;1.02;;
3587;SDS011;1808;53.596;9.972;2022-10-16T12:45:24;4.65;;;1.25;;
3587;SDS011;1808;53.596;9.972;2022-10-16T12:47:53;7.80;;;1.70;;
3587;SDS011;1808;53.596;9.972;2022-10-16T12:50:27;3.95;;;0.95;;
3587;SDS011;1808;53.596;9.972;2022-10-16T12:52:56;4.25;;;1.40;;
3587;SDS011;1808;53.596;9.972;2022-10-16T12:55:23;4.35;;;1.05;;
3587;SDS011;1808;53.596;9.972;2022-10-16T12:57:57;4.55;;;1.02;;
3587;SDS011;1808;53.596;9.972;2022-10-16T13:00:32;9.95;;;1.50;;
3587;SDS011;1808;53.596;9.972;2022-10-16T13:03:22;5.15;;;1.00;;
3587;SDS011;1808;53.596;9.972;2022-10-16T13:06:16;7.35;;;0.98;;
3587;SDS011;1808;53.596;9.972;2022-10-16T13:08:51;3.35;;;1.10;;
3587;SDS011;1808;53.596;9.972;2022-10-16T13:11:24;4.25;;;1.10;;
3587;SDS011;1808;53.596;9.972;2022-10-16T13:14:56;5.05;;;1.10;;
3587;SDS011;1808;53.596;9.972;2022-10-16T13:17:29;5.95;;;1.35;;
3587;SDS011;1808;53.596;9.972;2022-10-16T13:20:03;4.05;;;1.10;;
3587;SDS011;1808;53.596;9.972;2022-10-16T13:22:34;7.28;;;1.25;;
3587;SDS011;1808;53.596;9.972;2022-10-16T13:25:09;4.20;;;1.40;;
3587;SDS011;1808;53.596;9.972;2022-10-16T13:27:45;5.80;;;1.33;;
3587;SDS011;1808;53.596;9.972;2022-10-16T13:30:18;6.13;;;1.20;;
3587;SDS011;1808;53.596;9.972;2022-10-16T13:32:46;7.50;;;1.30;;
3587;SDS011;1808;53.596;9.972;2022-10-16T13:35:18;3.70;;;0.95;;
3587;SDS011;1808;53.596;9.972;2022-10-16T13:37:46;4.63;;;1.27;;
3587;SDS011;1808;53.596;9.972;2022-10-16T13:40:17;8.00;;;1.45;;
3587;SDS011;1808;53.596;9.972;2022-10-16T13:42:49;6.20;;;1.33;;
3587;SDS011;1808;53.596;9.972;2022-10-16T13:45:18;3.83;;;1.17;;
3587;SDS011;1808;53.596;9.972;2022-10-16T13:47:45;8.40;;;1.30;;
3587;SDS011;1808;53.596;9.972;2022-10-16T13:50:13;5.88;;;1.15;;
3587;SDS011;1808;53.596;9.972;2022-10-16T13:52:40;4.15;;;1.05;;
3587;SDS011;1808;53.596;9.972;2022-10-16T13:55:10;3.55;;;1.00;;
3587;SDS011;1808;53.596;9.972;2022-10-16T13:57:37;4.25;;;1.00;;
3587;SDS011;1808;53.596;9.972;2022-10-16T14:00:17;8.30;;;1.73;;
3587;SDS011;1808;53.596;9.972;2022-10-16T14:02:45;7.85;;;1.30;;
3587;SDS011;1808;53.596;9.972;2022-10-16T14:05:17;5.82;;;1.20;;
3587;SDS011;1808;53.596;9.972;2022-10-16T14:07:43;3.03;;;1.05;;
3587;SDS011;1808;53.596;9.972;2022-10-16T14:10:20;6.90;;;1.40;;
3587;SDS011;1808;53.596;9.972;2022-10-16T14:15:21;6.05;;;1.70;;
3587;SDS011;1808;53.596;9.972;2022-10-16T14:17:49;5.57;;;1.25;;
3587;SDS011;1808;53.596;9.972;2022-10-16T14:20:17;4.30;;;1.38;;
3587;SDS011;1808;53.596;9.972;2022-10-16T14:22:44;3.83;;;1.10;;
3587;SDS011;1808;53.596;9.972;2022-10-16T14:25:24;4.00;;;1.20;;
3587;SDS011;1808;53.596;9.972;2022-10-16T14:27:58;4.85;;;1.38;;
3587;SDS011;1808;53.596;9.972;2022-10-16T14:30:30;6.25;;;1.92;;
3587;SDS011;1808;53.596;9.972;2022-10-16T14:32:58;5.05;;;1.30;;
3587;SDS011;1808;53.596;9.972;2022-10-16T14:35:27;5.13;;;2.30;;
3587;SDS011;1808;53.596;9.972;2022-10-16T14:37:56;7.85;;;1.38;;
3587;SDS011;1808;53.596;9.972;2022-10-16T14:40:25;3.53;;;1.48;;
3587;SDS011;1808;53.596;9.972;2022-10-16T14:42:55;6.70;;;1.65;;
3587;SDS011;1808;53.596;9.972;2022-10-16T14:45:24;4.32;;;1.40;;
3587;SDS011;1808;53.596;9.972;2022-10-16T14:47:54;4.55;;;1.15;;
3587;SDS011;1808;53.596;9.972;2022-10-16T14:50:22;4.38;;;1.13;;
3587;SDS011;1808;53.596;9.972;2022-10-16T14:52:48;4.82;;;1.35;;
3587;SDS011;1808;53.596;9.972;2022-10-16T14:55:15;4.75;;;1.20;;
3587;SDS011;1808;53.596;9.972;2022-10-16T14:57:42;4.30;;;1.30;;
3587;SDS011;1808;53.596;9.972;2022-10-16T15:00:13;5.50;;;1.30;;
3587;SDS011;1808;53.596;9.972;2022-10-16T15:02:43;6.65;;;1.10;;
3587;SDS011;1808;53.596;9.972;2022-10-16T15:05:13;4.10;;;1.08;;
3587;SDS011;1808;53.596;9.972;2022-10-16T15:07:43;9.05;;;1.30;;
3587;SDS011;1808;53.596;9.972;2022-10-16T15:10:10;4.30;;;1.20;;
3587;SDS011;1808;53.596;9.972;2022-10-16T15:12:41;5.28;;;1.45;;
3587;SDS011;1808;53.596;9.972;2022-10-16T15:18:10;6.50;;;2.25;;
3587;SDS011;1808;53.596;9.972;2022-10-16T15:23:05;6.18;;;1.52;;
3587;SDS011;1808;53.596;9.972;2022-10-16T15:25:34;6.10;;;1.20;;
3587;SDS011;1808;53.596;9.972;2022-10-16T15:28:02;7.63;;;1.30;;
3587;SDS011;1808;53.596;9.972;2022-10-16T15:30:30;7.07;;;1.45;;
3587;SDS011;1808;53.596;9.972;2022-10-16T15:32:56;4.18;;;1.05;;
3587;SDS011;1808;53.596;9.972;2022-10-16T15:35:23;3.45;;;1.20;;
3587;SDS011;1808;53.596;9.972;2022-10-16T15:37:53;7.22;;;1.25;;
3587;SDS011;1808;53.596;9.972;2022-10-16T15:40:22;7.80;;;1.85;;
3587;SDS011;1808;53.596;9.972;2022-10-16T15:42:49;9.43;;;1.90;;
3587;SDS011;1808;53.596;9.972;2022-10-16T15:45:15;5.45;;;1.30;;
3587;SDS011;1808;53.596;9.972;2022-10-16T15:47:42;5.78;;;1.20;;
3587;SDS011;1808;53.596;9.972;2022-10-16T15:50:09;5.10;;;2.40;;